Time;durP1;ratioP1;P1;durP2;ratioP2;P2;SDS_P1;SDS_P2;PMS_P1;PMS_P2;Temp;Humidity;BMP_temperature;BMP_pressure;BME280_temperature;BME280_humidity;BME280_pressure;Samples;Min_cycle;Max_cycle;Signal;HPM_P1;HPM_P2
2022/06/29 00:00:27;;;;;;;8.10;7.20;;;;;;;18.25;71.08;100175.27;214328;1274;141623;-64
2022/06/29 00:05:44;;;;;;;7.40;6.60;;;;;;;18.21;71.21;100178.83;215877;1274;141116;-64
2022/06/29 00:10:49;;;;;;;8.60;7.80;;;;;;;18.19;71.30;100169.07;213657;1274;140320;-64
2022/06/29 00:15:54;;;;;;;10.10;8.50;;;;;;;18.14;71.52;100157.96;213810;1274;141305;-65
2022/06/29 00:20:59;;;;;;;8.40;7.30;;;;;;;18.08;71.59;100151.45;213948;1274;141761;-65
2022/06/29 00:26:03;;;;;;;9.90;8.60;;;;;;;17.94;71.38;100145.83;214312;1274;140156;-63
2022/06/29 00:31:08;;;;;;;9.70;7.00;;;;;;;17.82;71.63;100136.08;214460;1274;140583;-64
2022/06/29 00:36:12;;;;;;;7.70;7.00;;;;;;;17.77;71.79;100131.51;214215;1274;139935;-65
2022/06/29 00:41:16;;;;;;;10.20;8.00;;;;;;;17.75;72.05;100127.99;213291;1274;210210;-62
2022/06/29 00:46:21;;;;;;;16.80;13.10;;;;;;;17.72;72.08;100120.84;212871;1275;698267;-64
2022/06/29 00:51:29;;;;;;;12.40;10.60;;;;;;;17.66;72.47;100114.06;214651;1274;142364;-64
2022/06/29 00:56:36;;;;;;;11.70;9.80;;;;;;;17.65;72.48;100119.45;212986;1274;142469;-63
2022/06/29 01:01:42;;;;;;;14.10;9.80;;;;;;;17.59;72.47;100122.55;214606;1273;140501;-65
2022/06/29 01:07:26;;;;;;;13.20;11.50;;;;;;;17.49;72.42;100135.48;215929;1274;140839;-65
2022/06/29 01:12:31;;;;;;;11.20;10.10;;;;;;;17.45;72.65;100131.61;215596;1274;141454;-64
2022/06/29 01:17:35;;;;;;;11.70;10.00;;;;;;;17.43;72.63;100132.91;213509;1274;234558;-66
2022/06/29 01:22:40;;;;;;;12.10;10.90;;;;;;;17.40;72.79;100136.11;215885;1274;142371;-66
2022/06/29 01:27:44;;;;;;;14.30;11.70;;;;;;;17.41;73.04;100131.90;216158;1274;141191;-64
2022/06/29 01:32:49;;;;;;;12.90;9.90;;;;;;;17.44;73.18;100136.41;215941;1275;141061;-63
2022/06/29 01:37:54;;;;;;;14.30;10.60;;;;;;;17.43;73.10;100123.52;216008;1273;141715;-63
2022/06/29 01:42:59;;;;;;;13.40;10.30;;;;;;;17.41;73.05;100112.88;215731;1274;141545;-65
2022/06/29 01:48:04;;;;;;;12.70;9.80;;;;;;;17.35;72.83;100112.71;215932;1274;140478;-65
2022/06/29 01:53:08;;;;;;;15.60;12.70;;;;;;;17.18;72.96;100114.25;215181;1274;141710;-66
2022/06/29 01:58:14;;;;;;;15.20;11.40;;;;;;;17.21;73.42;100120.95;213903;1274;143021;-63
2022/06/29 02:03:18;;;;;;;14.50;11.20;;;;;;;17.24;73.66;100134.05;214106;1274;141867;-65
2022/06/29 02:08:23;;;;;;;14.50;12.50;;;;;;;17.29;74.20;100134.20;214943;1274;141459;-65
2022/06/29 02:13:28;;;;;;;13.20;11.30;;;;;;;17.44;74.93;100125.10;214727;1274;141248;-63
2022/06/29 02:18:33;;;;;;;12.80;11.40;;;;;;;17.59;75.15;100123.04;214990;1274;140950;-65
2022/06/29 02:23:37;;;;;;;15.80;13.30;;;;;;;17.72;75.26;100111.20;215080;1274;164597;-64
2022/06/29 02:28:42;;;;;;;17.60;13.50;;;;;;;17.77;75.28;100106.90;212966;1274;139882;-65
2022/06/29 02:39:10;;;;;;;16.90;12.10;;;;;;;17.79;75.47;100094.17;213789;1274;142516;-64
2022/06/29 02:44:14;;;;;;;14.70;11.50;;;;;;;17.84;75.68;100085.21;213091;1274;142345;-64
2022/06/29 02:49:18;;;;;;;16.60;14.20;;;;;;;17.88;75.78;100065.31;214882;1274;141502;-65
2022/06/29 02:54:22;;;;;;;22.80;13.00;;;;;;;17.92;76.00;100059.95;214128;1274;140678;-64
2022/06/29 02:59:26;;;;;;;12.80;11.50;;;;;;;17.97;76.00;100050.51;214438;1274;142527;-64
2022/06/29 03:04:34;;;;;;;13.00;11.80;;;;;;;18.06;76.12;100056.98;214922;1274;142082;-65
2022/06/29 03:09:39;;;;;;;10.60;9.50;;;;;;;18.15;76.19;100057.16;214191;1274;143185;-64
2022/06/29 03:14:44;;;;;;;14.40;10.90;;;;;;;18.20;76.25;100051.20;213106;1274;143488;-65
2022/06/29 03:19:48;;;;;;;17.80;11.70;;;;;;;18.26;76.30;100051.73;215871;1273;143288;-65
2022/06/29 03:24:53;;;;;;;13.50;11.50;;;;;;;18.29;76.32;100049.39;213836;1274;141848;-64
2022/06/29 03:29:57;;;;;;;14.10;12.20;;;;;;;18.35;76.24;100047.45;214955;1274;140572;-64
2022/06/29 03:35:02;;;;;;;15.30;12.70;;;;;;;18.43;76.24;100027.77;215919;1275;141964;-64
2022/06/29 03:40:07;;;;;;;18.20;13.30;;;;;;;18.52;76.17;100019.50;216180;1274;141158;-64
2022/06/29 03:45:12;;;;;;;16.20;13.00;;;;;;;18.61;76.18;100018.62;216006;1274;141589;-64
2022/06/29 03:50:16;;;;;;;18.50;15.00;;;;;;;18.72;76.36;100025.64;214528;1274;142649;-64
2022/06/29 03:55:21;;;;;;;23.20;15.60;;;;;;;18.82;76.32;100039.46;215358;1274;141108;-65
2022/06/29 04:00:25;;;;;;;21.00;13.70;;;;;;;18.89;76.30;100044.50;214754;1274;141097;-65
2022/06/29 04:05:30;;;;;;;17.40;13.60;;;;;;;18.95;76.16;100050.22;214892;1275;142100;-65
2022/06/29 04:10:34;;;;;;;18.20;15.60;;;;;;;19.04;76.11;100046.36;214552;1273;140988;-65
2022/06/29 04:15:38;;;;;;;22.50;16.80;;;;;;;19.15;76.12;100050.23;214227;1274;142169;-64
2022/06/29 04:26:07;;;;;;;19.10;15.60;;;;;;;19.30;76.15;100065.91;213639;1275;142034;-64
2022/06/29 04:31:11;;;;;;;22.30;17.70;;;;;;;19.36;76.20;100070.47;213274;1274;140852;-65
2022/06/29 04:36:15;;;;;;;33.40;19.30;;;;;;;19.40;76.16;100074.27;213860;1275;140978;-64
2022/06/29 04:41:21;;;;;;;32.40;18.20;;;;;;;19.43;76.03;100078.56;212981;1274;152625;-64
2022/06/29 04:46:29;;;;;;;30.00;19.00;;;;;;;19.45;76.12;100076.86;213911;1275;142564;-64
2022/06/29 04:51:35;;;;;;;36.40;20.80;;;;;;;19.45;76.04;100077.14;214287;1274;151153;-64
2022/06/29 04:56:39;;;;;;;36.60;21.30;;;;;;;19.49;76.22;100079.17;213547;1274;140785;-65
2022/06/29 05:01:43;;;;;;;30.70;21.30;;;;;;;19.57;76.36;100076.47;213499;1274;142031;-64
2022/06/29 05:06:47;;;;;;;25.50;19.20;;;;;;;19.61;76.07;100066.17;213741;1276;140680;-64
2022/06/29 05:11:51;;;;;;;31.10;20.20;;;;;;;19.64;76.06;100062.75;214462;1274;140818;-65
2022/06/29 05:16:55;;;;;;;33.10;21.60;;;;;;;19.73;76.02;100066.02;215756;1274;140405;-65
2022/06/29 05:22:00;;;;;;;28.50;20.90;;;;;;;19.80;75.91;100056.27;216182;1274;140359;-65
2022/06/29 05:27:06;;;;;;;23.90;17.70;;;;;;;19.91;75.91;100047.63;214126;1275;140502;-64
2022/06/29 05:32:10;;;;;;;34.10;19.60;;;;;;;19.97;75.70;100045.17;215098;1274;142504;-64
2022/06/29 05:37:14;;;;;;;31.80;20.50;;;;;;;20.01;75.61;100048.82;216004;1274;142019;-65
2022/06/29 05:42:18;;;;;;;25.60;19.50;;;;;;;20.05;75.51;100049.31;215716;1274;140989;-65
2022/06/29 05:47:22;;;;;;;28.90;20.80;;;;;;;20.13;75.55;100057.02;215029;1274;141478;-64
2022/06/29 05:52:27;;;;;;;27.50;21.00;;;;;;;20.18;75.38;100056.21;214272;1274;140724;-66
2022/06/29 05:57:33;;;;;;;35.60;23.00;;;;;;;20.28;75.34;100048.85;215277;1274;142981;-64
2022/06/29 06:02:39;;;;;;;30.40;20.90;;;;;;;20.37;75.15;100049.13;214879;1274;141512;-64
2022/06/29 06:07:45;;;;;;;33.70;22.80;;;;;;;20.39;75.00;100050.30;213784;1274;142535;-64
2022/06/29 06:12:50;;;;;;;33.50;24.10;;;;;;;20.41;75.01;100059.54;214201;1274;141322;-65
2022/06/29 06:17:55;;;;;;;32.40;22.90;;;;;;;20.51;75.13;100066.42;213969;1274;143163;-64
2022/06/29 06:23:00;;;;;;;29.20;22.50;;;;;;;20.55;74.88;100065.56;213770;1274;140101;-64
2022/06/29 06:28:06;;;;;;;31.30;23.20;;;;;;;20.58;74.89;100063.73;213177;1274;140760;-65
2022/06/29 06:33:10;;;;;;;31.90;24.10;;;;;;;20.61;74.86;100059.25;212899;1276;140983;-65
2022/06/29 06:38:15;;;;;;;40.40;24.80;;;;;;;20.61;74.48;100059.52;214392;1276;141797;-64
2022/06/29 06:43:19;;;;;;;35.80;24.80;;;;;;;20.68;74.82;100063.97;214667;1274;141891;-65
2022/06/29 06:48:23;;;;;;;29.20;21.50;;;;;;;20.74;74.60;100069.36;214716;1275;140580;-65
2022/06/29 06:53:28;;;;;;;29.80;22.80;;;;;;;20.80;74.57;100071.97;213415;1274;141672;-64
2022/06/29 06:58:32;;;;;;;29.40;23.20;;;;;;;20.88;74.36;100073.19;213188;1274;141610;-65
2022/06/29 07:03:37;;;;;;;34.30;25.40;;;;;;;20.97;74.19;100068.20;213500;1274;142214;-65
2022/06/29 07:08:42;;;;;;;36.70;27.80;;;;;;;21.04;74.04;100061.63;213996;1274;141746;-64
2022/06/29 07:13:46;;;;;;;36.30;27.40;;;;;;;21.13;73.97;100057.94;213218;1274;141638;-65
2022/06/29 07:18:50;;;;;;;34.30;24.20;;;;;;;21.18;73.92;100054.33;212918;1274;141243;-64
2022/06/29 07:23:58;;;;;;;29.50;22.10;;;;;;;21.30;73.63;100052.77;214351;1275;142739;-65
2022/06/29 07:29:02;;;;;;;33.90;24.20;;;;;;;21.43;73.35;100050.73;216035;1273;151204;-65
2022/06/29 07:34:05;;;;;;;28.00;22.30;;;;;;;21.54;73.06;100055.58;216067;1274;140682;-65
2022/06/29 07:39:09;;;;;;;27.70;23.50;;;;;;;21.58;72.76;100058.28;215828;1274;140343;-65
2022/06/29 07:44:13;;;;;;;27.30;21.50;;;;;;;21.67;72.53;100062.67;215793;1274;140982;-65
2022/06/29 07:49:17;;;;;;;32.90;25.20;;;;;;;21.76;72.29;100063.73;215896;1274;140627;-65
2022/06/29 07:54:20;;;;;;;31.40;22.10;;;;;;;21.92;72.09;100064.24;215855;1274;140805;-65
2022/06/29 07:59:25;;;;;;;26.00;22.70;;;;;;;22.14;71.55;100056.81;214687;1274;140612;-64
2022/06/29 08:04:29;;;;;;;28.10;23.70;;;;;;;22.37;71.12;100058.39;213201;1274;144573;-65
2022/06/29 08:09:54;;;;;;;24.80;20.50;;;;;;;22.58;70.66;100053.58;214147;1274;141316;-66
2022/06/29 08:14:58;;;;;;;24.70;20.80;;;;;;;22.72;70.44;100050.80;213852;1274;140498;-65
2022/06/29 08:20:03;;;;;;;29.80;22.00;;;;;;;22.80;70.03;100056.84;213068;1274;140153;-65
2022/06/29 08:25:08;;;;;;;29.50;23.50;;;;;;;22.85;69.78;100059.77;214774;1274;142714;-65
2022/06/29 08:30:12;;;;;;;30.40;24.50;;;;;;;22.88;69.91;100065.85;214026;1274;141047;-64
2022/06/29 08:35:17;;;;;;;22.30;19.70;;;;;;;23.23;69.94;100059.33;213382;1274;140656;-64
2022/06/29 08:40:21;;;;;;;28.30;21.20;;;;;;;23.60;69.11;100052.82;212917;1274;140677;-64
2022/06/29 08:45:25;;;;;;;24.70;22.10;;;;;;;24.05;68.78;100050.50;213789;1274;141509;-64
2022/06/29 08:50:30;;;;;;;23.00;19.00;;;;;;;24.25;68.19;100053.73;212981;1275;141958;-64
2022/06/29 08:55:37;;;;;;;24.10;19.60;;;;;;;24.57;67.10;100054.83;214780;1274;140809;-64
2022/06/29 09:00:41;;;;;;;22.80;19.90;;;;;;;25.08;66.37;100055.17;213312;1274;141674;-64
2022/06/29 09:05:54;;;;;;;20.20;18.00;;;;;;;25.53;65.42;100051.14;214151;1274;140377;-64
2022/06/29 09:10:58;;;;;;;18.90;16.30;;;;;;;25.88;64.32;100047.36;214751;1274;140846;-64
2022/06/29 09:16:04;;;;;;;22.00;19.40;;;;;;;26.09;63.50;100051.05;215707;1274;140749;-64
2022/06/29 09:21:08;;;;;;;;;;;;;;;26.42;62.95;100048.94;215840;1275;140795;-64
2022/06/29 09:26:12;;;;;;;19.60;17.60;;;;;;;26.70;62.44;100044.83;216597;1274;126268;-64
2022/06/29 09:31:16;;;;;;;16.80;15.10;;;;;;;27.11;61.75;100037.50;215597;1274;140064;-64
2022/06/29 09:36:21;;;;;;;17.90;16.10;;;;;;;27.46;60.80;100033.77;215960;1275;139775;-64
2022/06/29 09:41:28;;;;;;;21.90;14.50;;;;;;;27.63;60.08;100032.17;215920;1274;140067;-65
2022/06/29 09:46:36;;;;;;;16.20;14.70;;;;;;;27.27;58.90;100034.55;215880;1274;141650;-65
2022/06/29 09:51:41;;;;;;;16.00;14.50;;;;;;;26.88;58.72;100037.23;213829;1274;140790;-64
2022/06/29 09:56:56;;;;;;;34.20;13.70;;;;;;;26.57;58.63;100035.55;214116;1275;140298;-64
2022/06/29 10:07:23;;;;;;;14.10;12.90;;;;;;;26.37;59.00;100014.24;214925;1274;140524;-64
2022/06/29 10:18:40;;;;;;;14.50;13.10;;;;;;;26.61;59.00;100016.86;213758;1275;139719;-64
2022/06/29 10:23:54;;;;;;;17.30;13.00;;;;;;;27.28;58.64;100012.52;213667;1276;141158;-64
2022/06/29 10:29:08;;;;;;;13.30;11.90;;;;;;;28.09;58.20;100013.06;213114;1274;140174;-64
2022/06/29 10:34:32;;;;;;;13.80;12.50;;;;;;;28.53;57.13;99997.08;214102;1274;140570;-64
2022/06/29 10:39:48;;;;;;;14.20;12.80;;;;;;;28.51;56.20;100007.36;214350;1274;139862;-64
2022/06/29 10:45:03;;;;;;;15.50;12.20;;;;;;;28.71;56.44;99995.61;214029;1274;141389;-65
2022/06/29 10:50:24;;;;;;;16.70;12.60;;;;;;;28.56;55.43;99992.86;213324;1275;140740;-63
2022/06/29 10:55:33;;;;;;;12.90;11.80;;;;;;;28.09;54.79;99989.34;213639;1274;140907;-64
2022/06/29 11:00:44;;;;;;;13.00;11.90;;;;;;;27.93;54.86;99965.81;213546;1274;140482;-66
2022/06/29 11:16:38;;;;;;;12.10;11.10;;;;;;;29.03;53.94;99958.42;213992;1274;235426;-64
2022/06/29 11:22:17;;;;;;;11.30;10.30;;;;;;;29.21;53.42;99959.40;214722;1274;139959;-64
2022/06/29 11:27:31;;;;;;;11.70;10.60;;;;;;;29.03;52.71;99963.49;214791;1274;139956;-65
2022/06/29 11:32:42;;;;;;;11.30;10.30;;;;;;;28.89;52.50;99955.30;215384;1274;141077;-65
2022/06/29 11:37:57;;;;;;;10.30;9.50;;;;;;;28.95;53.09;99954.66;215656;1274;142815;-65
2022/06/29 11:43:05;;;;;;;;;;;;;;;29.30;52.33;99941.21;215523;1276;141848;-65
2022/06/29 11:48:15;;;;;;;10.30;9.40;;;;;;;29.46;51.95;99927.64;216644;1275;128085;-65
2022/06/29 11:53:56;;;;;;;12.80;8.60;;;;;;;29.53;51.19;99928.45;215147;1274;141029;-65
2022/06/29 11:59:07;;;;;;;9.90;9.10;;;;;;;29.48;50.59;99927.48;213491;1274;143550;-65
2022/06/29 12:04:25;;;;;;;11.00;9.20;;;;;;;29.57;50.29;99926.11;213677;1274;140609;-65
2022/06/29 12:09:29;;;;;;;10.40;9.40;;;;;;;29.64;50.02;99925.18;215384;1274;140422;-65
2022/06/29 12:14:36;;;;;;;9.40;8.60;;;;;;;29.77;50.17;99916.91;215661;1273;141385;-65
2022/06/29 12:19:40;;;;;;;9.80;8.70;;;;;;;29.91;49.57;99915.72;214344;1274;141171;-66
2022/06/29 12:24:51;;;;;;;9.20;8.20;;;;;;;29.92;49.18;99905.86;215033;1274;140785;-64
2022/06/29 12:29:55;;;;;;;9.80;8.90;;;;;;;29.86;49.14;99896.46;213375;1274;140933;-65
2022/06/29 12:35:01;;;;;;;8.40;7.80;;;;;;;29.92;48.79;99896.50;213385;1274;140632;-65
2022/06/29 12:40:09;;;;;;;50.00;9.90;;;;;;;29.95;48.47;99893.28;214360;1274;139488;-65
2022/06/29 12:45:14;;;;;;;9.50;8.50;;;;;;;29.93;48.06;99887.51;214833;1274;999134;-65
2022/06/29 12:50:21;;;;;;;7.50;7.00;;;;;;;29.75;47.82;99884.27;213139;1274;140388;-64
2022/06/29 12:55:25;;;;;;;13.60;8.20;;;;;;;29.66;47.97;99877.87;213422;1275;139660;-65
2022/06/29 13:00:30;;;;;;;8.90;8.20;;;;;;;29.67;47.90;99869.58;215006;1274;140422;-65
2022/06/29 13:05:35;;;;;;;10.20;8.10;;;;;;;29.60;48.21;99867.80;213531;1274;139256;-65
2022/06/29 13:10:39;;;;;;;7.00;6.40;;;;;;;29.79;47.81;99873.77;214733;1274;140440;-64
2022/06/29 13:15:47;;;;;;;13.90;8.10;;;;;;;29.89;47.13;99877.13;215523;1274;139856;-66
2022/06/29 13:20:53;;;;;;;9.10;8.10;;;;;;;29.96;47.13;99881.21;214508;1274;139241;-66
2022/06/29 13:26:01;;;;;;;9.00;8.10;;;;;;;29.70;46.92;99881.73;214958;1274;140497;-65
2022/06/29 13:31:06;;;;;;;31.50;9.80;;;;;;;29.80;46.87;99889.03;214502;1273;140129;-65
2022/06/29 13:36:12;;;;;;;8.80;8.00;;;;;;;29.98;47.25;99897.32;215138;1273;141070;-68
2022/06/29 13:41:19;;;;;;;8.50;7.80;;;;;;;30.13;47.03;99892.09;215913;1273;140857;-67
2022/06/29 13:46:23;;;;;;;8.50;7.50;;;;;;;30.25;46.62;99891.16;215845;1273;140146;-68
2022/06/29 13:51:27;;;;;;;10.60;7.70;;;;;;;29.84;46.59;99900.80;215401;1274;140112;-67
2022/06/29 13:56:31;;;;;;;8.80;8.00;;;;;;;29.53;47.65;99903.96;215999;1274;140561;-66
2022/06/29 14:01:36;;;;;;;15.30;9.10;;;;;;;29.29;47.98;99902.44;216065;1274;140711;-67
2022/06/29 14:06:42;;;;;;;9.00;8.30;;;;;;;29.24;48.72;99900.73;215257;1273;140294;-66
2022/06/29 14:11:46;;;;;;;8.80;8.10;;;;;;;29.24;48.81;99895.48;215616;1273;139904;-65
2022/06/29 14:16:50;;;;;;;11.10;10.10;;;;;;;29.24;48.69;99892.19;214149;1274;141348;-65
2022/06/29 14:21:57;;;;;;;10.40;9.40;;;;;;;29.26;48.74;99884.70;213474;1275;141767;-66
2022/06/29 14:27:02;;;;;;;11.40;10.40;;;;;;;29.23;48.76;99881.74;213110;1273;139541;-65
2022/06/29 14:32:08;;;;;;;10.70;9.70;;;;;;;29.09;48.81;99885.46;214114;1273;141272;-65
2022/06/29 14:37:29;;;;;;;13.20;11.00;;;;;;;28.96;49.17;99873.31;213202;1273;140440;-66
2022/06/29 14:42:35;;;;;;;10.20;9.30;;;;;;;28.94;49.48;99872.95;212925;1274;140624;-65
2022/06/29 14:47:40;;;;;;;11.70;9.20;;;;;;;28.69;49.02;99866.80;213458;1273;141155;-65
2022/06/29 14:52:44;;;;;;;12.40;11.30;;;;;;;28.47;49.28;99865.96;213872;1274;139765;-65
2022/06/29 14:57:48;;;;;;;13.20;12.20;;;;;;;28.56;48.93;99867.45;214277;1275;140192;-66
2022/06/29 15:02:52;;;;;;;12.30;11.20;;;;;;;28.62;48.99;99862.63;214388;1273;140238;-65
2022/06/29 15:07:56;;;;;;;14.80;11.70;;;;;;;28.66;48.84;99863.50;214249;1273;140031;-65
2022/06/29 15:13:02;;;;;;;12.80;11.50;;;;;;;28.73;48.92;99855.45;214448;1274;140401;-64
2022/06/29 15:18:06;;;;;;;12.00;10.80;;;;;;;28.73;49.10;99853.64;212984;1274;140161;-65
2022/06/29 15:23:12;;;;;;;12.10;11.00;;;;;;;28.48;48.79;99854.96;214175;1274;231431;-64
2022/06/29 15:28:16;;;;;;;;;;;;;;;28.28;49.34;99844.65;214596;1273;141043;-66
2022/06/29 15:38:50;;;;;;;14.10;12.60;;;;;;;28.21;49.68;99814.83;214539;1274;141876;-65
2022/06/29 15:43:54;;;;;;;118.90;22.00;;;;;;;28.17;49.37;99803.11;215985;1274;141407;-66
2022/06/29 15:48:58;;;;;;;13.90;12.60;;;;;;;28.16;49.34;99801.59;215518;1274;140940;-65
2022/06/29 15:59:25;;;;;;;14.30;12.80;;;;;;;28.18;49.37;99787.56;215923;1274;141218;-65
2022/06/29 16:04:33;;;;;;;15.90;13.00;;;;;;;28.06;49.21;99778.48;216083;1274;141473;-65
2022/06/29 16:09:38;;;;;;;16.00;14.60;;;;;;;28.01;49.20;99775.60;215709;1274;141508;-65
2022/06/29 16:14:43;;;;;;;;;;;;;;;28.00;49.37;99770.55;214858;1274;141724;-65
2022/06/29 16:19:48;;;;;;;;;;;;;;;27.85;49.41;99768.09;216222;1274;126799;-66
2022/06/29 16:24:54;;;;;;;15.30;12.50;;;;;;;27.67;49.48;99765.81;215549;1274;127727;-64
2022/06/29 16:29:59;;;;;;;14.50;12.90;;;;;;;27.58;49.60;99760.92;214404;1274;141071;-65
2022/06/29 16:35:03;;;;;;;14.50;12.60;;;;;;;27.56;49.95;99765.84;214190;1273;142170;-65
2022/06/29 16:40:08;;;;;;;15.30;12.70;;;;;;;27.45;50.18;99756.46;213963;1274;141748;-64
2022/06/29 16:45:11;;;;;;;15.90;14.40;;;;;;;27.31;50.26;99760.49;213407;1274;141241;-64
2022/06/29 16:50:15;;;;;;;16.30;14.60;;;;;;;27.23;50.33;99745.17;213675;1274;141662;-65
2022/06/29 16:55:20;;;;;;;11.90;10.80;;;;;;;27.14;50.72;99739.58;213434;1273;142778;-65
2022/06/29 17:00:25;;;;;;;11.40;10.30;;;;;;;27.03;50.79;99743.15;214208;1274;140271;-65
2022/06/29 17:05:30;;;;;;;10.80;9.20;;;;;;;26.96;50.84;99745.35;214188;1274;143328;-65
2022/06/29 17:10:35;;;;;;;8.90;8.20;;;;;;;26.79;50.50;99744.95;214111;1274;140651;-65
2022/06/29 17:15:40;;;;;;;10.10;9.00;;;;;;;26.59;51.15;99755.02;213998;1274;159001;-65
2022/06/29 17:20:46;;;;;;;11.00;10.00;;;;;;;26.41;51.73;99768.41;213676;1274;141052;-64
2022/06/29 17:25:51;;;;;;;11.20;10.20;;;;;;;26.29;52.16;99776.94;214588;1275;142014;-64
2022/06/29 17:30:56;;;;;;;11.90;10.80;;;;;;;26.18;52.47;99774.83;213793;1274;140539;-66
2022/06/29 17:36:00;;;;;;;11.40;10.20;;;;;;;26.06;52.63;99766.13;213863;1274;142631;-64
2022/06/29 17:41:05;;;;;;;13.80;10.80;;;;;;;25.93;53.59;99770.38;213541;1274;141528;-64
2022/06/29 17:46:10;;;;;;;10.80;9.50;;;;;;;25.80;54.36;99774.27;215981;1274;141712;-64
2022/06/29 17:51:16;;;;;;;10.90;9.00;;;;;;;25.65;54.79;99781.77;216026;1274;141088;-65
2022/06/29 17:56:22;;;;;;;10.90;9.60;;;;;;;25.52;55.36;99778.35;216123;1274;150787;-65
2022/06/29 18:01:27;;;;;;;8.80;8.00;;;;;;;25.40;55.65;99770.02;214744;1274;143092;-64
2022/06/29 18:06:31;;;;;;;10.20;9.00;;;;;;;25.31;56.03;99774.05;215937;1274;141605;-63
2022/06/29 18:11:36;;;;;;;8.40;7.70;;;;;;;25.20;56.69;99781.33;214145;1274;141278;-62
2022/06/29 18:16:42;;;;;;;8.30;7.60;;;;;;;25.05;56.56;99776.39;214542;1274;140129;-66
2022/06/29 18:21:47;;;;;;;10.70;8.10;;;;;;;24.92;57.05;99780.13;214828;1274;140349;-65
2022/06/29 18:26:52;;;;;;;9.50;7.60;;;;;;;24.79;57.26;99773.09;214124;1274;140710;-64
2022/06/29 18:31:59;;;;;;;9.70;8.50;;;;;;;24.69;57.65;99772.19;213747;1274;141333;-64
2022/06/29 18:37:04;;;;;;;26.70;9.00;;;;;;;24.56;58.11;99757.57;214158;1274;139629;-64
2022/06/29 18:42:08;;;;;;;20.60;7.70;;;;;;;24.41;58.44;99757.77;213751;1274;140604;-64
2022/06/29 18:47:13;;;;;;;16.30;7.40;;;;;;;24.22;58.42;99768.77;213332;1274;139697;-65
2022/06/29 18:52:17;;;;;;;10.30;7.30;;;;;;;24.03;58.97;99763.58;213902;1274;141748;-64
2022/06/29 18:57:21;;;;;;;20.40;8.90;;;;;;;23.83;59.23;99772.45;213405;1274;139701;-64
2022/06/29 19:02:26;;;;;;;14.70;8.10;;;;;;;23.64;59.48;99771.16;214244;1274;140454;-64
2022/06/29 19:07:32;;;;;;;21.40;7.70;;;;;;;23.49;60.09;99756.95;213936;1274;139879;-65
2022/06/29 19:12:37;;;;;;;42.70;9.60;;;;;;;23.36;60.24;99747.09;213353;1273;141173;-63
2022/06/29 19:17:41;;;;;;;24.00;9.00;;;;;;;23.21;60.68;99741.77;212941;1273;140959;-64
2022/06/29 19:22:46;;;;;;;12.80;8.90;;;;;;;23.02;60.84;99762.40;213304;1273;140100;-64
2022/06/29 19:27:52;;;;;;;9.80;8.80;;;;;;;22.82;61.33;99764.45;213984;1273;140508;-65
2022/06/29 19:32:58;;;;;;;13.80;9.00;;;;;;;22.70;61.60;99774.64;213967;1273;140061;-64
2022/06/29 19:38:05;;;;;;;7.50;6.80;;;;;;;22.59;61.83;99764.25;214161;1273;139954;-64
2022/06/29 19:43:10;;;;;;;9.80;8.00;;;;;;;22.52;62.14;99761.58;215526;1274;140322;-64
2022/06/29 19:48:16;;;;;;;9.40;8.30;;;;;;;22.43;62.43;99755.98;215247;1274;151398;-64
2022/06/29 19:53:24;;;;;;;13.20;9.60;;;;;;;22.34;62.78;99751.77;213982;1274;140389;-64
2022/06/29 19:58:29;;;;;;;15.00;8.90;;;;;;;22.25;62.80;99745.89;215803;1275;139890;-63
2022/06/29 20:03:36;;;;;;;10.00;9.10;;;;;;;22.15;63.01;99750.20;216026;1275;142395;-64
2022/06/29 20:08:41;;;;;;;9.80;8.90;;;;;;;22.08;63.32;99758.20;215793;1274;141778;-63
2022/06/29 20:13:49;;;;;;;13.00;10.70;;;;;;;22.06;63.53;99772.10;215879;1275;139899;-64
2022/06/29 20:18:55;;;;;;;11.90;10.70;;;;;;;22.03;63.67;99783.20;214922;1276;142197;-64
2022/06/29 20:23:59;;;;;;;;;;;;;;;21.97;64.01;99781.48;213476;1274;141334;-66
2022/06/29 20:29:03;;;;;;;12.80;9.50;;;;;;;21.88;64.42;99768.13;215524;1274;195387;-65
2022/06/29 20:34:07;;;;;;;12.30;11.00;;;;;;;21.83;64.60;99761.84;215401;1274;141515;-64
2022/06/29 20:39:12;;;;;;;14.20;12.70;;;;;;;21.76;64.81;99758.24;214341;1275;140424;-64
2022/06/29 20:49:41;;;;;;;12.30;10.70;;;;;;;21.63;65.19;99749.85;213589;1274;140896;-64
2022/06/29 20:54:50;;;;;;;14.60;13.10;;;;;;;21.53;65.26;99752.35;214401;1274;141516;-65
2022/06/29 20:59:56;;;;;;;14.80;13.40;;;;;;;21.46;65.72;99745.55;213669;1274;140554;-64
2022/06/29 21:05:02;;;;;;;14.70;13.30;;;;;;;21.41;65.97;99742.58;213726;1274;141483;-64
2022/06/29 21:10:09;;;;;;;17.20;14.70;;;;;;;21.36;66.15;99753.52;214028;1274;140012;-65
2022/06/29 21:15:13;;;;;;;16.50;15.00;;;;;;;21.31;66.38;99763.05;213557;1276;140431;-64
2022/06/29 21:20:20;;;;;;;19.60;17.90;;;;;;;21.26;66.47;99765.61;214193;1274;139858;-64
2022/06/29 21:25:24;;;;;;;19.50;17.80;;;;;;;21.18;66.65;99763.30;214858;1275;139845;-64
2022/06/29 21:30:28;;;;;;;18.50;16.80;;;;;;;21.13;66.93;99773.09;213615;1275;142101;-64
2022/06/29 21:35:33;;;;;;;20.40;18.20;;;;;;;21.13;67.08;99782.85;213383;1276;143371;-64
2022/06/29 21:40:36;;;;;;;20.00;17.90;;;;;;;21.07;67.12;99780.28;213333;1275;245846;-64
2022/06/29 21:45:41;;;;;;;19.40;17.60;;;;;;;20.81;67.06;99781.04;214111;1274;141952;-65
2022/06/29 21:56:10;;;;;;;18.00;16.40;;;;;;;20.60;67.71;99776.23;215050;1274;143695;-65
2022/06/29 22:01:15;;;;;;;20.10;18.10;;;;;;;20.58;68.06;99779.20;215913;1274;140532;-65
2022/06/29 22:06:20;;;;;;;18.80;16.70;;;;;;;20.56;68.24;99778.63;216062;1274;140256;-65
2022/06/29 22:11:25;;;;;;;19.40;17.30;;;;;;;20.54;68.28;99775.92;216051;1274;140580;-65
2022/06/29 22:16:29;;;;;;;17.40;15.70;;;;;;;20.53;68.32;99772.02;215900;1274;140914;-65
2022/06/29 22:21:33;;;;;;;20.60;18.70;;;;;;;20.51;68.43;99771.61;214982;1275;142261;-64
2022/06/29 22:26:38;;;;;;;22.10;18.60;;;;;;;20.45;68.64;99769.48;215375;1274;140800;-64
2022/06/29 22:31:44;;;;;;;18.10;16.30;;;;;;;20.39;68.78;99764.29;213777;1275;139622;-64
2022/06/29 22:36:49;;;;;;;19.70;17.80;;;;;;;20.38;68.85;99746.43;214414;1274;141068;-62
2022/06/29 22:41:57;;;;;;;20.70;18.70;;;;;;;20.37;68.89;99737.51;214202;1274;152019;-63
2022/06/29 22:47:03;;;;;;;20.60;17.80;;;;;;;20.36;69.24;99738.97;214385;1274;142749;-64
2022/06/29 22:52:08;;;;;;;18.60;16.80;;;;;;;20.37;69.31;99746.27;213673;1274;140862;-64
2022/06/29 22:57:33;;;;;;;16.90;14.70;;;;;;;20.37;69.56;99740.05;214464;1274;140886;-63
2022/06/29 23:02:38;;;;;;;17.00;15.40;;;;;;;20.40;69.61;99723.91;213293;1274;140732;-64
2022/06/29 23:07:43;;;;;;;16.80;15.10;;;;;;;20.40;69.62;99716.46;214181;1274;141540;-65
2022/06/29 23:12:48;;;;;;;17.20;15.60;;;;;;;20.38;69.64;99708.15;214636;1274;144070;-65
2022/06/29 23:17:53;;;;;;;22.10;14.90;;;;;;;20.35;69.60;99716.67;213540;1274;141482;-63
2022/06/29 23:22:59;;;;;;;15.40;13.90;;;;;;;20.32;69.65;99711.48;213277;1274;142239;-62
2022/06/29 23:28:04;;;;;;;21.80;15.20;;;;;;;20.30;69.79;99693.77;214181;1274;141137;-63
2022/06/29 23:33:09;;;;;;;14.60;13.30;;;;;;;20.20;69.81;99671.42;213194;1274;141340;-65
2022/06/29 23:38:14;;;;;;;14.20;12.80;;;;;;;20.16;70.08;99672.86;214583;1274;141988;-64
2022/06/29 23:43:19;;;;;;;12.70;11.60;;;;;;;20.19;70.28;99680.64;215951;1274;140788;-64
2022/06/29 23:48:25;;;;;;;14.30;12.90;;;;;;;20.23;70.51;99685.10;215708;1274;140560;-63